KSDY/SDY METAR and TAF weather

Enter ICAO airport designator
Station Type Date Time Source
KSDY METAR 2019/04/22 23:56 UTC NOAA

KSDY 222356Z AUTO 18005KT 10SM CLR 18/M07 A3013 RMK AO2 SLP217 T01781072 10189 20150 56021


Station Type Date Time Source
KSDY Decoded METAR 2019/04/22 23:56 UTC NOAA

Sidney-Richland, MT, United States (KSDY) 47-42N 104-12W
Apr 22, 2019 - 07:56 PM EDT / 2019.04.22 2356 UTC
Wind: from the S (180 degrees) at 6 MPH (5 KT):0
Visibility: 10 mile(s):0
Sky conditions: clear
Temperature: 64.0 F (17.8 C)
Dew Point: 19.0 F (-7.2 C)
Relative Humidity: 17%
Pressure (altimeter): 30.13 in. Hg (1020 hPa)
Pressure tendency: 0.06 inches (2.1 hPa) lower than three hours ago
ob: KSDY 222356Z AUTO 18005KT 10SM CLR 18/M07 A3013 RMK AO2 SLP217 T01781072 10189 20150 56021
cycle: 0

Station Type Date Time Source
KSDY TAF 2019/04/22 18:22 UTC NOAA

TAF KSDY 221720Z 2218/2318 VRB04KT P6SM SKC
FM231400 20010G18KT P6SM SCT140
FM231700 23013G21KT P6SM SCT100

Example: see airport list